Time;durP1;ratioP1;P1;durP2;ratioP2;P2;SDS_P1;SDS_P2;PMS_P1;PMS_P2;Temp;Humidity;BMP_temperature;BMP_pressure;BME280_temperature;BME280_humidity;BME280_pressure;Samples;Min_cycle;Max_cycle;Signal;HPM_P1;HPM_P2
2021/06/07 00:01:46;;;;;;;11.65;8.30;;;18.50;99.90;;;;;;5051796;28;20481;-71
2021/06/07 00:04:12;;;;;;;9.10;8.20;;;18.50;99.90;;;;;;5051084;28;20028;-70
2021/06/07 00:06:39;;;;;;;14.88;7.90;;;18.50;99.90;;;;;;5051761;28;20021;-70
2021/06/07 00:09:08;;;;;;;10.02;7.13;;;18.50;99.90;;;;;;5050745;28;20032;-70
2021/06/07 00:11:35;;;;;;;11.55;7.88;;;18.40;99.90;;;;;;5051309;28;20158;-69
2021/06/07 00:14:02;;;;;;;9.57;8.57;;;18.40;99.90;;;;;;5052020;28;20025;-70
2021/06/07 00:16:29;;;;;;;7.85;7.05;;;18.40;99.90;;;;;;5051767;28;20029;-71
2021/06/07 00:18:55;;;;;;;9.77;7.40;;;18.50;99.90;;;;;;5050657;28;20049;-70
2021/06/07 00:21:24;;;;;;;9.20;8.20;;;18.50;99.90;;;;;;5051657;28;20060;-70
2021/06/07 00:23:51;;;;;;;8.75;7.65;;;18.50;99.90;;;;;;5051318;28;20029;-70
2021/06/07 00:26:17;;;;;;;9.65;7.40;;;18.50;99.90;;;;;;5049998;28;20025;-70
2021/06/07 00:28:42;;;;;;;10.95;8.23;;;18.50;99.90;;;;;;5049689;28;20516;-71
2021/06/07 00:31:10;;;;;;;11.43;7.40;;;18.50;99.90;;;;;;5052280;28;20442;-70
2021/06/07 00:33:37;;;;;;;11.18;7.47;;;18.40;99.90;;;;;;5051262;28;20029;-71
2021/06/07 00:36:04;;;;;;;9.90;8.05;;;18.50;99.90;;;;;;5050501;28;20021;-70
2021/06/07 00:38:30;;;;;;;9.57;7.70;;;18.50;99.90;;;;;;5050827;28;20033;-72
2021/06/07 00:41:01;;;;;;;9.07;8.02;;;18.50;99.90;;;;;;5051757;28;20087;-71
2021/06/07 00:43:27;;;;;;;8.20;7.40;;;18.40;99.90;;;;;;5051548;28;20024;-70
2021/06/07 00:45:53;;;;;;;12.65;7.70;;;18.50;99.90;;;;;;5049327;28;20029;-71
2021/06/07 00:48:18;;;;;;;9.82;7.57;;;18.50;99.90;;;;;;5049735;28;20029;-71
2021/06/07 00:50:50;;;;;;;9.27;7.53;;;18.50;99.90;;;;;;5051609;28;20072;-70
2021/06/07 00:53:18;;;;;;;8.18;7.05;;;18.50;99.90;;;;;;5071001;28;20480;-70
2021/06/07 00:55:48;;;;;;;11.45;8.35;;;18.50;99.90;;;;;;5070664;28;20017;-70
2021/06/07 00:58:16;;;;;;;12.33;8.90;;;18.40;99.90;;;;;;5071167;28;20028;-70
2021/06/07 01:00:42;;;;;;;10.45;8.10;;;18.40;99.90;;;;;;5070395;28;20044;-70
2021/06/07 01:03:10;;;;;;;9.38;7.10;;;18.40;99.90;;;;;;5070655;28;20017;-70
2021/06/07 01:05:36;;;;;;;9.20;8.23;;;18.50;99.90;;;;;;5052175;28;20321;-70
2021/06/07 01:08:03;;;;;;;10.10;8.27;;;18.40;99.90;;;;;;5070773;28;20107;-69
2021/06/07 01:10:29;;;;;;;10.13;8.10;;;18.40;99.90;;;;;;5053165;28;20138;-69
2021/06/07 01:12:54;;;;;;;11.43;9.40;;;18.40;99.90;;;;;;5052308;28;20021;-69
2021/06/07 01:15:21;;;;;;;9.10;8.05;;;18.40;99.90;;;;;;5070633;28;20028;-69
2021/06/07 01:17:47;;;;;;;13.43;9.27;;;18.20;99.90;;;;;;5070304;28;20029;-70
2021/06/07 01:20:16;;;;;;;12.15;10.27;;;18.30;99.90;;;;;;5070860;28;20016;-69
2021/06/07 01:22:42;;;;;;;13.45;9.05;;;18.20;99.90;;;;;;5070293;28;20162;-69
2021/06/07 01:25:13;;;;;;;11.77;9.52;;;18.10;99.90;;;;;;5052741;28;20568;-69
2021/06/07 01:27:40;;;;;;;11.57;10.38;;;18.10;99.90;;;;;;5070274;28;20025;-69
2021/06/07 01:30:12;;;;;;;12.70;9.77;;;18.00;99.90;;;;;;5070724;28;20027;-70
2021/06/07 01:32:38;;;;;;;13.73;9.65;;;17.90;99.90;;;;;;5051523;28;20021;-70
2021/06/07 01:35:06;;;;;;;11.80;9.15;;;17.90;99.90;;;;;;5070564;28;20024;-69
2021/06/07 01:37:32;;;;;;;11.45;9.90;;;17.80;99.90;;;;;;5070630;28;20179;-70
2021/06/07 01:39:58;;;;;;;12.55;9.45;;;17.80;99.90;;;;;;5070479;28;20060;-70
2021/06/07 01:42:23;;;;;;;11.43;8.80;;;17.80;99.90;;;;;;5070811;28;20468;-70
2021/06/07 01:44:49;;;;;;;12.65;9.95;;;17.80;99.90;;;;;;5070150;28;20036;-68
2021/06/07 01:47:15;;;;;;;11.57;10.25;;;17.80;99.90;;;;;;5070104;28;20047;-69
2021/06/07 01:49:41;;;;;;;10.70;9.43;;;17.60;99.90;;;;;;5069677;28;20016;-68
2021/06/07 01:52:07;;;;;;;11.57;9.68;;;17.60;99.90;;;;;;5069940;28;20044;-69
2021/06/07 01:54:33;;;;;;;12.88;11.05;;;17.60;99.90;;;;;;5052185;28;20342;-70
2021/06/07 01:56:59;;;;;;;12.43;10.43;;;17.70;99.90;;;;;;5052226;28;20028;-69
2021/06/07 01:59:25;;;;;;;12.45;10.32;;;17.50;99.90;;;;;;5052260;28;20417;-69
2021/06/07 02:01:52;;;;;;;13.25;10.55;;;17.40;99.90;;;;;;5069807;28;20025;-69
2021/06/07 02:04:17;;;;;;;12.68;11.32;;;17.50;99.90;;;;;;5052293;28;20020;-69
2021/06/07 02:06:43;;;;;;;13.02;10.85;;;17.50;99.90;;;;;;5069491;28;20070;-69
2021/06/07 02:09:09;;;;;;;15.00;10.15;;;17.50;99.90;;;;;;5051790;28;20116;-69
2021/06/07 02:11:34;;;;;;;16.27;10.40;;;17.50;99.90;;;;;;5051845;28;20025;-72
2021/06/07 02:14:03;;;;;;;16.52;12.32;;;17.50;99.90;;;;;;5070007;28;20056;-69
2021/06/07 02:16:33;;;;;;;18.23;12.00;;;17.60;99.90;;;;;;5052043;28;20111;-69
2021/06/07 02:18:59;;;;;;;16.63;11.05;;;17.60;99.90;;;;;;5069580;28;20028;-69
2021/06/07 02:21:26;;;;;;;14.43;11.23;;;17.50;99.90;;;;;;5070046;28;20471;-68
2021/06/07 02:23:53;;;;;;;15.15;10.85;;;17.60;99.90;;;;;;5051402;28;20081;-68
2021/06/07 02:26:20;;;;;;;14.90;11.68;;;17.60;99.90;;;;;;5070055;28;20046;-68
2021/06/07 02:28:56;;;;;;;13.85;11.50;;;17.60;99.90;;;;;;5054109;28;20462;-69
2021/06/07 02:31:23;;;;;;;17.10;11.48;;;17.60;99.90;;;;;;5074415;28;20020;-69
2021/06/07 02:33:56;;;;;;;15.88;12.07;;;17.70;99.90;;;;;;5073265;28;20111;-69
2021/06/07 02:36:25;;;;;;;13.27;11.68;;;17.60;99.90;;;;;;5074132;28;20025;-69
2021/06/07 02:38:51;;;;;;;14.13;11.45;;;17.50;99.90;;;;;;5055338;28;20036;-69
2021/06/07 02:41:18;;;;;;;16.08;12.88;;;17.60;99.90;;;;;;5056038;28;20021;-69
2021/06/07 02:43:44;;;;;;;16.48;12.20;;;17.50;99.90;;;;;;5055369;28;20028;-69
2021/06/07 02:46:10;;;;;;;16.45;12.90;;;17.50;99.90;;;;;;5074105;28;20024;-69
2021/06/07 02:48:36;;;;;;;14.25;11.90;;;17.60;99.90;;;;;;5074372;28;20078;-69
2021/06/07 02:51:03;;;;;;;14.20;12.25;;;17.60;99.90;;;;;;5055395;28;20040;-69
2021/06/07 02:53:29;;;;;;;16.52;12.23;;;17.60;99.90;;;;;;5073645;28;20021;-69
2021/06/07 02:55:56;;;;;;;13.95;10.75;;;17.50;99.90;;;;;;5055042;28;20410;-68
2021/06/07 02:58:22;;;;;;;14.15;11.80;;;17.60;99.90;;;;;;5055557;28;20039;-69
2021/06/07 03:00:56;;;;;;;17.00;13.45;;;17.60;99.90;;;;;;5055130;28;20024;-69
2021/06/07 03:03:22;;;;;;;17.08;12.25;;;17.60;99.90;;;;;;5055580;28;20070;-72
2021/06/07 03:05:49;;;;;;;15.50;12.30;;;17.60;99.90;;;;;;5054915;28;20020;-69
2021/06/07 03:08:19;;;;;;;17.13;11.88;;;17.60;99.90;;;;;;5055274;28;20020;-68
2021/06/07 03:10:48;;;;;;;16.60;12.00;;;17.50;99.90;;;;;;5072812;28;20012;-70
2021/06/07 03:13:14;;;;;;;16.80;12.60;;;17.50;99.90;;;;;;5047677;28;20057;-68
2021/06/07 03:15:40;;;;;;;17.70;12.57;;;17.50;99.90;;;;;;5055186;28;20017;-69
2021/06/07 03:18:07;;;;;;;16.45;13.05;;;17.40;99.90;;;;;;5055097;28;20032;-69
2021/06/07 03:20:34;;;;;;;15.93;11.77;;;17.40;99.90;;;;;;5072858;28;20025;-69
2021/06/07 03:23:03;;;;;;;14.38;12.73;;;17.40;99.90;;;;;;5072045;28;20377;-69
2021/06/07 03:25:29;;;;;;;17.88;11.95;;;17.50;99.90;;;;;;5054908;28;20444;-69
2021/06/07 03:27:56;;;;;;;15.68;12.10;;;17.50;99.90;;;;;;5072063;28;20031;-69
2021/06/07 03:30:22;;;;;;;13.80;12.15;;;17.40;99.90;;;;;;5054761;28;20034;-69
2021/06/07 03:32:48;;;;;;;15.30;11.60;;;17.50;99.90;;;;;;5072433;28;20024;-69
2021/06/07 03:35:16;;;;;;;16.90;12.48;;;17.50;99.90;;;;;;5073311;28;20430;-69
2021/06/07 03:37:42;;;;;;;18.17;13.68;;;17.40;99.90;;;;;;5053908;28;20028;-69
2021/06/07 03:40:15;;;;;;;15.65;12.15;;;17.40;99.90;;;;;;5072553;28;20090;-69
2021/06/07 03:42:41;;;;;;;19.90;12.13;;;17.50;99.90;;;;;;5072323;28;20047;-69
2021/06/07 03:45:09;;;;;;;14.05;11.80;;;17.50;99.90;;;;;;5055060;28;20017;-69
2021/06/07 03:47:35;;;;;;;15.13;11.70;;;17.50;99.90;;;;;;5072861;28;20016;-69
2021/06/07 03:50:00;;;;;;;15.48;13.13;;;17.40;99.90;;;;;;5071895;28;20024;-69
2021/06/07 03:52:26;;;;;;;17.05;12.20;;;17.30;99.90;;;;;;5072044;28;20458;-71
2021/06/07 03:54:52;;;;;;;15.63;12.25;;;17.30;99.90;;;;;;5071880;28;20028;-70
2021/06/07 03:57:18;;;;;;;18.90;13.35;;;17.40;99.90;;;;;;5054310;28;20032;-70
2021/06/07 03:59:43;;;;;;;19.02;12.98;;;17.50;99.90;;;;;;5053716;28;20435;-69
2021/06/07 04:02:10;;;;;;;16.63;12.18;;;17.40;99.90;;;;;;5072184;28;20421;-69
2021/06/07 04:04:36;;;;;;;16.15;12.70;;;17.40;99.90;;;;;;5054271;28;20119;-69
2021/06/07 04:07:03;;;;;;;15.95;13.15;;;17.30;99.90;;;;;;5071913;28;20032;-69
2021/06/07 04:09:28;;;;;;;18.65;13.50;;;17.30;99.90;;;;;;5053918;28;20024;-70
2021/06/07 04:11:54;;;;;;;14.45;12.13;;;17.40;99.90;;;;;;5049708;28;20031;-70
2021/06/07 04:14:20;;;;;;;16.35;12.52;;;17.40;99.90;;;;;;5046780;28;20050;-73
2021/06/07 04:16:46;;;;;;;18.08;11.07;;;17.40;99.90;;;;;;5053569;28;20021;-70
2021/06/07 04:19:11;;;;;;;17.70;13.52;;;17.70;99.90;;;;;;5053802;28;20055;-70
2021/06/07 04:21:40;;;;;;;15.55;13.13;;;17.70;99.90;;;;;;5072368;28;20024;-71
2021/06/07 04:24:06;;;;;;;14.38;12.30;;;17.60;99.90;;;;;;5053364;28;20021;-70
2021/06/07 04:26:33;;;;;;;17.58;13.55;;;17.50;99.90;;;;;;5071812;28;20020;-70
2021/06/07 04:28:58;;;;;;;18.13;13.10;;;17.60;99.90;;;;;;5053003;28;20028;-70
2021/06/07 04:31:25;;;;;;;17.45;13.75;;;17.50;99.90;;;;;;5071845;28;20089;-70
2021/06/07 04:33:51;;;;;;;21.35;14.48;;;17.50;99.90;;;;;;5053211;28;20083;-69
2021/06/07 04:36:18;;;;;;;18.50;14.30;;;17.50;99.90;;;;;;5072007;28;20047;-69
2021/06/07 04:38:43;;;;;;;19.40;13.52;;;17.50;99.90;;;;;;5071226;28;20097;-72
2021/06/07 04:41:09;;;;;;;18.42;13.77;;;17.40;99.90;;;;;;5071308;28;20099;-67
2021/06/07 04:43:35;;;;;;;16.33;9.63;;;17.50;99.90;;;;;;5071191;28;20017;-60
2021/06/07 04:46:01;;;;;;;18.15;13.05;;;17.70;99.90;;;;;;5053033;28;20023;-62
2021/06/07 04:48:26;;;;;;;21.98;14.05;;;17.90;99.90;;;;;;5071364;28;20492;-69
2021/06/07 04:50:52;;;;;;;18.45;12.93;;;17.90;99.90;;;;;;5069268;28;20107;-70
2021/06/07 04:53:18;;;;;;;22.92;14.10;;;17.70;99.90;;;;;;5071116;28;20395;-70
2021/06/07 04:55:47;;;;;;;21.80;14.75;;;17.70;99.90;;;;;;5052766;28;20024;-69
2021/06/07 04:58:28;;;;;;;22.15;14.63;;;17.50;99.90;;;;;;5053250;28;20035;-70
2021/06/07 05:00:56;;;;;;;19.83;14.80;;;17.50;99.90;;;;;;5052347;28;20485;-70
2021/06/07 05:03:26;;;;;;;18.30;13.25;;;17.40;99.90;;;;;;5070601;28;20065;-70
2021/06/07 05:05:52;;;;;;;19.20;14.35;;;17.40;99.90;;;;;;5027970;28;20026;-69
2021/06/07 05:08:18;;;;;;;19.45;13.50;;;17.40;99.90;;;;;;5012027;28;20631;-69
2021/06/07 05:10:43;;;;;;;18.63;13.65;;;17.40;99.90;;;;;;5012327;28;20137;-69
2021/06/07 05:13:09;;;;;;;19.35;14.60;;;17.50;99.90;;;;;;5027645;28;20025;-69
2021/06/07 05:15:35;;;;;;;19.70;14.05;;;17.40;99.90;;;;;;5028497;28;20417;-69
2021/06/07 05:18:01;;;;;;;17.70;13.32;;;17.50;99.90;;;;;;5027503;28;20129;-69
2021/06/07 05:20:28;;;;;;;19.92;14.55;;;17.40;99.90;;;;;;5028047;28;20382;-69
2021/06/07 05:22:56;;;;;;;21.20;14.50;;;17.40;99.90;;;;;;5027713;28;20026;-69
2021/06/07 05:25:24;;;;;;;20.33;13.95;;;17.30;99.90;;;;;;5028453;28;20030;-69
2021/06/07 05:27:51;;;;;;;18.20;14.13;;;17.40;99.90;;;;;;5010835;28;20059;-69
2021/06/07 05:30:19;;;;;;;22.42;14.70;;;17.40;99.90;;;;;;5027924;28;20133;-69
2021/06/07 05:32:45;;;;;;;22.10;14.68;;;17.30;99.90;;;;;;5028107;28;20029;-70
2021/06/07 05:35:12;;;;;;;22.13;13.85;;;17.30;99.90;;;;;;5027497;28;20026;-70
2021/06/07 05:37:38;;;;;;;23.58;15.27;;;17.30;99.90;;;;;;5027828;28;20050;-70
2021/06/07 05:40:07;;;;;;;22.05;15.55;;;17.20;99.90;;;;;;5027098;28;20044;-69
2021/06/07 05:42:32;;;;;;;21.40;14.55;;;17.30;99.90;;;;;;5036176;28;20047;-69
2021/06/07 05:44:58;;;;;;;20.20;14.52;;;17.30;99.90;;;;;;5068105;28;20036;-69
2021/06/07 05:47:24;;;;;;;18.48;14.32;;;17.30;99.90;;;;;;5069575;28;20435;-70
2021/06/07 05:49:50;;;;;;;21.60;14.10;;;17.30;99.90;;;;;;5068655;28;20503;-70
2021/06/07 05:52:15;;;;;;;24.33;15.15;;;17.30;99.90;;;;;;5068669;28;20055;-71
2021/06/07 05:54:41;;;;;;;20.58;15.15;;;17.30;99.90;;;;;;5046052;28;20036;-70
2021/06/07 05:57:09;;;;;;;20.90;12.95;;;17.30;99.90;;;;;;5048227;28;20200;-70
2021/06/07 05:59:37;;;;;;;21.67;14.77;;;17.30;99.90;;;;;;5050142;28;20078;-71
2021/06/07 06:02:04;;;;;;;17.80;13.38;;;17.20;99.90;;;;;;5049456;28;20427;-70
2021/06/07 06:04:30;;;;;;;18.00;13.18;;;17.30;99.90;;;;;;5050511;28;20020;-69
2021/06/07 06:06:56;;;;;;;18.35;14.25;;;17.20;99.90;;;;;;5068015;28;20029;-69
2021/06/07 06:09:22;;;;;;;17.73;14.50;;;17.20;99.90;;;;;;5069235;28;20029;-69
2021/06/07 06:11:47;;;;;;;19.38;14.45;;;17.10;99.90;;;;;;5067842;28;20366;-70
2021/06/07 06:14:13;;;;;;;24.05;15.25;;;17.10;99.90;;;;;;5050489;28;20108;-71
2021/06/07 06:16:39;;;;;;;17.73;13.13;;;17.10;99.90;;;;;;5050829;28;20024;-69
2021/06/07 06:19:05;;;;;;;19.30;12.90;;;17.20;99.90;;;;;;5068238;28;20095;-70
2021/06/07 06:21:30;;;;;;;21.83;13.68;;;17.00;99.90;;;;;;5050536;28;20157;-69
2021/06/07 06:23:57;;;;;;;21.77;16.80;;;17.10;99.90;;;;;;5049641;28;20021;-70
2021/06/07 06:26:24;;;;;;;20.15;15.88;;;17.10;99.90;;;;;;5050157;28;20025;-69
2021/06/07 06:28:50;;;;;;;16.45;12.98;;;17.10;99.90;;;;;;5049831;28;20093;-70
2021/06/07 06:31:16;;;;;;;21.00;14.68;;;17.10;99.90;;;;;;5068536;28;20044;-69
2021/06/07 06:33:43;;;;;;;18.42;13.82;;;17.20;99.90;;;;;;5050299;28;20107;-69
2021/06/07 06:36:09;;;;;;;25.60;15.85;;;17.10;99.90;;;;;;5049779;28;20245;-69
2021/06/07 06:38:35;;;;;;;21.38;13.63;;;17.00;99.90;;;;;;5068319;28;20071;-69
2021/06/07 06:41:02;;;;;;;17.17;14.05;;;17.00;99.90;;;;;;5068216;28;20027;-69
2021/06/07 06:43:28;;;;;;;24.02;13.88;;;17.00;99.90;;;;;;5050269;28;20027;-69
2021/06/07 06:45:54;;;;;;;17.50;14.00;;;17.10;99.90;;;;;;5050055;28;20028;-70
2021/06/07 06:48:20;;;;;;;18.58;14.05;;;17.10;99.90;;;;;;5050853;28;20380;-70
2021/06/07 06:50:45;;;;;;;19.60;13.60;;;17.00;99.90;;;;;;5068355;28;20389;-69
2021/06/07 06:53:16;;;;;;;15.95;12.18;;;16.90;99.90;;;;;;5065980;28;20226;-70
2021/06/07 06:55:43;;;;;;;18.08;12.43;;;17.10;99.90;;;;;;5046594;28;20037;-70
2021/06/07 06:58:09;;;;;;;20.80;13.05;;;17.10;99.90;;;;;;5038549;28;20481;-69
2021/06/07 07:00:36;;;;;;;18.15;13.88;;;17.10;99.90;;;;;;5040035;28;20021;-68
2021/06/07 07:03:07;;;;;;;20.92;14.75;;;17.20;99.90;;;;;;5039926;28;20434;-71
2021/06/07 07:05:33;;;;;;;19.57;14.73;;;17.10;99.90;;;;;;5046323;28;20033;-70
2021/06/07 07:07:59;;;;;;;19.38;13.40;;;17.00;99.90;;;;;;5055152;28;20340;-70
2021/06/07 07:10:25;;;;;;;18.23;13.48;;;17.10;99.90;;;;;;5056293;28;20475;-71
2021/06/07 07:12:51;;;;;;;17.33;13.68;;;17.10;99.90;;;;;;5058542;28;20024;-71
2021/06/07 07:15:17;;;;;;;18.60;14.27;;;17.10;99.90;;;;;;5043620;28;20021;-70
2021/06/07 07:17:44;;;;;;;20.00;14.13;;;17.20;99.90;;;;;;5056084;28;20112;-69
2021/06/07 07:20:10;;;;;;;17.23;13.95;;;17.10;99.90;;;;;;5033147;28;20137;-69
2021/06/07 07:22:36;;;;;;;21.17;14.30;;;17.10;99.90;;;;;;5051922;28;20025;-70
2021/06/07 07:25:03;;;;;;;19.75;14.05;;;17.20;99.90;;;;;;5032551;28;20025;-71
2021/06/07 07:27:29;;;;;;;16.45;13.38;;;17.20;99.90;;;;;;5033794;28;20033;-69
2021/06/07 07:29:55;;;;;;;19.83;15.25;;;17.20;99.90;;;;;;5033168;28;20044;-70
2021/06/07 07:32:24;;;;;;;19.58;14.63;;;17.20;99.90;;;;;;5052005;28;20052;-69
2021/06/07 07:34:50;;;;;;;21.30;14.05;;;17.20;99.90;;;;;;5058944;28;20089;-70
2021/06/07 07:37:16;;;;;;;19.33;14.07;;;17.30;99.90;;;;;;5057018;28;20033;-69
2021/06/07 07:39:42;;;;;;;18.13;14.23;;;17.50;99.90;;;;;;5042040;28;20110;-69
2021/06/07 07:42:07;;;;;;;18.83;14.25;;;17.40;99.90;;;;;;5062210;28;20055;-69
2021/06/07 07:44:34;;;;;;;18.50;13.45;;;17.50;99.90;;;;;;5042403;28;20021;-69
2021/06/07 07:47:02;;;;;;;18.77;14.18;;;17.50;99.90;;;;;;5061379;28;20028;-69
2021/06/07 07:49:27;;;;;;;18.88;15.25;;;17.50;99.90;;;;;;5044062;28;20029;-70
2021/06/07 07:51:53;;;;;;;19.40;13.88;;;17.50;99.90;;;;;;5059876;28;20099;-70
2021/06/07 07:54:19;;;;;;;19.20;14.57;;;17.60;99.90;;;;;;5058631;28;20024;-69
2021/06/07 07:56:45;;;;;;;18.35;14.25;;;17.70;99.90;;;;;;5059136;28;20367;-70
2021/06/07 07:59:11;;;;;;;19.10;14.20;;;17.70;99.90;;;;;;5041789;28;20048;-69
2021/06/07 08:01:36;;;;;;;21.73;16.00;;;17.80;99.90;;;;;;5061082;28;20072;-70
2021/06/07 08:04:02;;;;;;;21.58;15.18;;;17.80;99.90;;;;;;5058437;28;20187;-69
2021/06/07 08:06:28;;;;;;;18.25;14.45;;;17.80;99.90;;;;;;5060645;28;20082;-69
2021/06/07 08:08:55;;;;;;;21.67;16.05;;;17.70;99.90;;;;;;5041189;28;20096;-69
2021/06/07 08:11:21;;;;;;;18.83;14.27;;;17.70;99.90;;;;;;5058530;28;20107;-70
2021/06/07 08:13:48;;;;;;;19.23;13.85;;;17.70;99.90;;;;;;5039247;28;20111;-69
2021/06/07 08:16:14;;;;;;;22.05;15.40;;;17.80;99.90;;;;;;5052342;28;20056;-69
2021/06/07 08:18:39;;;;;;;17.98;15.32;;;17.80;99.90;;;;;;5071276;28;20436;-68
2021/06/07 08:21:06;;;;;;;18.58;14.90;;;17.90;99.90;;;;;;5070683;28;20036;-69
2021/06/07 08:23:31;;;;;;;16.77;14.20;;;17.80;99.90;;;;;;5070163;28;20035;-69
2021/06/07 08:25:57;;;;;;;17.65;14.23;;;17.80;99.90;;;;;;5046132;28;20029;-69
2021/06/07 08:28:23;;;;;;;19.77;15.40;;;17.90;99.90;;;;;;5044277;28;20029;-70
2021/06/07 08:30:49;;;;;;;19.10;14.43;;;17.90;99.90;;;;;;5059362;28;20132;-69
2021/06/07 08:33:14;;;;;;;20.63;15.52;;;18.00;99.90;;;;;;5055276;28;20033;-68
2021/06/07 08:35:40;;;;;;;22.52;16.08;;;18.00;99.90;;;;;;5051229;28;20029;-70
2021/06/07 08:38:06;;;;;;;21.73;15.73;;;17.90;99.90;;;;;;5042825;28;20037;-69
2021/06/07 08:40:32;;;;;;;23.52;15.95;;;17.80;99.90;;;;;;5070767;28;20087;-68
2021/06/07 08:43:00;;;;;;;21.90;16.40;;;17.80;99.90;;;;;;5051917;28;20427;-69
2021/06/07 08:45:26;;;;;;;22.55;15.55;;;17.90;99.90;;;;;;5052900;28;20032;-68
2021/06/07 08:47:53;;;;;;;30.90;17.27;;;17.80;99.90;;;;;;5052447;28;20039;-70
2021/06/07 08:50:30;;;;;;;20.50;16.08;;;17.80;99.90;;;;;;5052284;28;20034;-69
2021/06/07 08:52:57;;;;;;;22.67;15.20;;;17.80;99.90;;;;;;5050842;28;20393;-71
2021/06/07 08:55:26;;;;;;;19.15;15.77;;;17.80;99.90;;;;;;5040642;28;20127;-69
2021/06/07 08:57:54;;;;;;;20.77;15.93;;;17.70;99.90;;;;;;5040424;28;20047;-70
2021/06/07 09:00:26;;;;;;;18.33;15.23;;;17.80;99.90;;;;;;5046391;28;20017;-69
2021/06/07 09:03:01;;;;;;;21.67;16.08;;;17.90;99.90;;;;;;5066516;28;20036;-69
2021/06/07 09:05:27;;;;;;;20.50;14.85;;;17.90;99.90;;;;;;5041875;28;20029;-70
2021/06/07 09:08:08;;;;;;;23.23;15.52;;;18.00;99.90;;;;;;5040937;28;20112;-72
2021/06/07 09:10:40;;;;;;;19.85;15.23;;;18.00;99.90;;;;;;5040421;28;20054;-67
2021/06/07 09:13:07;;;;;;;;;;;18.20;99.90;;;;;;5047432;28;20025;-66
2021/06/07 09:15:36;;;;;;;21.25;15.40;;;18.20;99.90;;;;;;5039799;28;19913;-69
2021/06/07 09:18:04;;;;;;;18.80;16.02;;;18.20;99.90;;;;;;5052078;28;20052;-67
2021/06/07 09:20:30;;;;;;;19.45;15.70;;;18.40;99.90;;;;;;5043407;28;20036;-68
2021/06/07 09:23:06;;;;;;;18.77;14.30;;;18.50;99.90;;;;;;5052362;28;20025;-67
2021/06/07 09:25:44;;;;;;;19.80;14.10;;;18.50;99.90;;;;;;5045046;28;20100;-66
2021/06/07 09:28:13;;;;;;;19.80;14.80;;;18.40;99.90;;;;;;5049730;28;20047;-68
2021/06/07 09:30:54;;;;;;;19.60;14.10;;;18.50;99.90;;;;;;5050227;28;20366;-67
2021/06/07 09:33:36;;;;;;;20.33;15.23;;;18.70;99.90;;;;;;5032513;28;20032;-67
2021/06/07 09:36:23;;;;;;;22.33;15.48;;;18.60;99.90;;;;;;5049478;28;20226;-67
2021/06/07 09:38:56;;;;;;;23.50;16.15;;;18.70;99.90;;;;;;5050558;28;20037;-67
2021/06/07 09:41:23;;;;;;;17.30;13.60;;;18.70;99.90;;;;;;5032509;28;20443;-66
2021/06/07 09:43:54;;;;;;;20.33;15.15;;;18.80;99.90;;;;;;5032291;28;20045;-67
2021/06/07 09:46:21;;;;;;;;;;;18.80;99.90;;;;;;5032794;28;20025;-68
2021/06/07 09:48:47;;;;;;;18.38;12.70;;;18.90;99.90;;;;;;5050092;28;19905;-68
2021/06/07 09:51:19;;;;;;;18.83;14.10;;;19.00;99.90;;;;;;5049321;28;20128;-68
2021/06/07 09:53:52;;;;;;;19.02;13.88;;;19.20;99.90;;;;;;5050265;28;20363;-68
2021/06/07 09:56:19;;;;;;;17.60;14.13;;;19.00;99.90;;;;;;5049575;28;20420;-69
2021/06/07 09:58:48;;;;;;;18.58;14.88;;;19.00;99.90;;;;;;5049915;28;20119;-69
2021/06/07 10:01:19;;;;;;;18.98;13.43;;;19.10;99.90;;;;;;5049422;28;20100;-68
2021/06/07 10:03:59;;;;;;;18.73;14.20;;;19.10;99.90;;;;;;5032005;28;20036;-67
2021/06/07 10:06:35;;;;;;;18.00;13.57;;;19.20;99.90;;;;;;5049887;28;20087;-67
2021/06/07 10:09:12;;;;;;;18.90;12.77;;;19.30;99.90;;;;;;5031386;28;20032;-67
2021/06/07 10:11:45;;;;;;;19.60;13.55;;;19.40;99.90;;;;;;5032326;28;20021;-67
2021/06/07 10:14:19;;;;;;;20.00;14.13;;;19.50;99.90;;;;;;5049213;28;20017;-68
2021/06/07 10:17:02;;;;;;;30.88;14.73;;;19.60;99.90;;;;;;5049589;28;20124;-67
2021/06/07 10:19:33;;;;;;;17.70;13.88;;;19.70;99.90;;;;;;5049625;28;20087;-68
2021/06/07 10:22:00;;;;;;;19.45;13.05;;;19.70;99.90;;;;;;5030733;28;20033;-69
2021/06/07 10:24:26;;;;;;;18.63;13.07;;;19.80;99.90;;;;;;5031348;28;20477;-68
2021/06/07 10:26:52;;;;;;;17.85;13.45;;;20.00;99.90;;;;;;5031273;28;20021;-68
2021/06/07 10:29:19;;;;;;;15.75;13.25;;;20.00;99.90;;;;;;5030873;28;20033;-68
2021/06/07 10:31:45;;;;;;;22.65;13.98;;;20.10;99.90;;;;;;5049432;28;20382;-69
2021/06/07 10:34:11;;;;;;;17.70;13.55;;;20.10;99.90;;;;;;5048692;28;20040;-68
2021/06/07 10:36:41;;;;;;;22.17;15.10;;;20.20;99.90;;;;;;5049397;28;20378;-69
2021/06/07 10:39:23;;;;;;;17.02;11.88;;;20.20;99.90;;;;;;5030243;28;20033;-68
2021/06/07 10:42:09;;;;;;;22.73;13.55;;;20.30;99.90;;;;;;5031200;28;20079;-68
2021/06/07 10:44:40;;;;;;;16.25;13.02;;;20.40;99.90;;;;;;5032634;28;20036;-69
2021/06/07 10:47:11;;;;;;;17.20;12.40;;;20.60;99.90;;;;;;5048984;28;20098;-70
2021/06/07 10:49:42;;;;;;;;;;;21.00;99.90;;;;;;5034279;28;20102;-69
2021/06/07 10:52:23;;;;;;;17.63;12.02;;;21.20;99.90;;;;;;5052118;28;19979;-70
2021/06/07 10:55:08;;;;;;;17.15;12.15;;;21.10;99.90;;;;;;5035490;28;20037;-69
2021/06/07 10:57:37;;;;;;;17.27;11.52;;;21.40;99.90;;;;;;5053214;28;20040;-69
2021/06/07 11:00:20;;;;;;;16.70;13.52;;;21.40;99.90;;;;;;5034579;28;20032;-69
2021/06/07 11:02:47;;;;;;;17.92;11.40;;;21.30;99.90;;;;;;5034841;28;20036;-68
2021/06/07 11:05:13;;;;;;;14.57;11.68;;;21.30;99.90;;;;;;5052163;28;20245;-69
2021/06/07 11:07:43;;;;;;;17.08;12.75;;;21.20;99.90;;;;;;5052932;28;20127;-68
2021/06/07 11:10:19;;;;;;;16.00;11.73;;;21.30;99.90;;;;;;5034120;28;20043;-69
2021/06/07 11:12:46;;;;;;;13.02;11.15;;;21.10;99.90;;;;;;5034805;28;20029;-69
2021/06/07 11:15:17;;;;;;;16.13;11.68;;;21.20;99.90;;;;;;5034255;28;20458;-70
2021/06/07 11:17:44;;;;;;;12.38;11.13;;;21.00;99.90;;;;;;5052675;28;20037;-69
2021/06/07 11:20:11;;;;;;;12.68;10.77;;;20.70;99.90;;;;;;5051672;28;20029;-68
2021/06/07 11:23:05;;;;;;;16.77;13.10;;;20.80;99.90;;;;;;5034643;28;20116;-69
2021/06/07 11:25:45;;;;;;;14.55;10.93;;;20.90;99.90;;;;;;5034754;28;20493;-69
2021/06/07 11:28:39;;;;;;;15.05;11.68;;;20.90;99.90;;;;;;5033770;28;20036;-68
2021/06/07 11:31:27;;;;;;;7.32;5.85;;;20.90;99.90;;;;;;5051067;28;20058;-67
2021/06/07 11:34:02;;;;;;;11.35;9.20;;;21.20;99.90;;;;;;5032502;28;20088;-64
2021/06/07 11:36:47;;;;;;;8.77;5.95;;;21.70;99.90;;;;;;5039140;28;20029;-64
2021/06/07 11:39:21;;;;;;;11.45;7.82;;;22.00;99.90;;;;;;5051493;28;20041;-65
2021/06/07 11:41:53;;;;;;;8.50;6.88;;;22.10;99.90;;;;;;5049964;28;20025;-65
2021/06/07 11:44:39;;;;;;;9.32;6.72;;;22.20;99.90;;;;;;5047119;28;20149;-64
2021/06/07 11:47:05;;;;;;;11.00;8.00;;;22.30;99.90;;;;;;5051845;28;20061;-66
2021/06/07 11:49:31;;;;;;;13.50;10.65;;;22.40;99.90;;;;;;5035500;28;20025;-64
2021/06/07 11:52:08;;;;;;;14.10;9.63;;;22.30;99.90;;;;;;5055529;28;20120;-65
2021/06/07 11:54:36;;;;;;;11.75;7.28;;;22.10;99.90;;;;;;5054401;28;20028;-65
2021/06/07 11:57:07;;;;;;;8.95;8.07;;;22.20;99.90;;;;;;5071845;28;20035;-69
2021/06/07 11:59:40;;;;;;;11.40;10.00;;;22.20;99.90;;;;;;5065586;28;20078;-66
2021/06/07 12:02:14;;;;;;;13.40;10.40;;;22.20;99.90;;;;;;5057648;28;20078;-63
2021/06/07 12:04:42;;;;;;;8.73;7.70;;;22.10;99.90;;;;;;5061626;28;20021;-64
2021/06/07 12:07:10;;;;;;;12.38;8.23;;;22.20;99.90;;;;;;5052083;28;20163;-64
2021/06/07 12:09:39;;;;;;;9.95;8.93;;;22.30;99.90;;;;;;5053731;28;20076;-65
2021/06/07 12:12:06;;;;;;;11.73;8.73;;;22.30;99.90;;;;;;5052978;28;20174;-64
2021/06/07 12:14:40;;;;;;;9.38;8.40;;;22.30;99.90;;;;;;5053592;28;20108;-64
2021/06/07 12:17:08;;;;;;;11.98;8.10;;;22.40;99.90;;;;;;5055897;28;20369;-64
2021/06/07 12:19:37;;;;;;;18.98;8.38;;;22.50;99.90;;;;;;5051838;28;20112;-64
2021/06/07 12:22:04;;;;;;;9.60;8.60;;;22.50;99.90;;;;;;5036940;28;20111;-77
2021/06/07 12:24:32;;;;;;;10.38;9.25;;;22.70;99.90;;;;;;5053792;28;20035;-63
2021/06/07 12:29:47;;;;;;;9.70;7.68;;;22.90;99.90;;;;;;5071796;28;20047;-64
2021/06/07 12:32:14;;;;;;;9.38;8.30;;;22.90;99.90;;;;;;5052043;28;20393;-65
2021/06/07 12:35:13;;;;;;;11.13;9.20;;;23.10;99.90;;;;;;5053216;28;20017;-63
2021/06/07 12:37:54;;;;;;;8.55;6.50;;;23.20;99.90;;;;;;5070048;28;20029;-65
2021/06/07 12:40:28;;;;;;;9.37;6.93;;;23.30;99.90;;;;;;5070762;28;20029;-63